sensor_id;sensor_type;location;lat;lon;timestamp;temperature;humidity
40600;DHT22;26309;50.924;4.754;2023-06-24T00:02:22;19.60;99.90
40600;DHT22;26309;50.924;4.754;2023-06-24T00:04:50;19.50;99.90
40600;DHT22;26309;50.924;4.754;2023-06-24T00:07:26;19.30;99.90
40600;DHT22;26309;50.924;4.754;2023-06-24T00:09:52;19.30;99.90
40600;DHT22;26309;50.924;4.754;2023-06-24T00:12:19;19.30;99.90
40600;DHT22;26309;50.924;4.754;2023-06-24T00:14:46;19.10;99.90
40600;DHT22;26309;50.924;4.754;2023-06-24T00:17:13;19.10;99.90
40600;DHT22;26309;50.924;4.754;2023-06-24T00:19:39;19.10;99.90
40600;DHT22;26309;50.924;4.754;2023-06-24T00:22:06;19.20;99.90
40600;DHT22;26309;50.924;4.754;2023-06-24T00:24:33;19.30;99.90
40600;DHT22;26309;50.924;4.754;2023-06-24T00:26:59;19.30;99.90
40600;DHT22;26309;50.924;4.754;2023-06-24T00:29:25;19.20;99.90
40600;DHT22;26309;50.924;4.754;2023-06-24T00:31:51;19.00;99.90
40600;DHT22;26309;50.924;4.754;2023-06-24T00:34:17;19.00;99.90
40600;DHT22;26309;50.924;4.754;2023-06-24T00:36:46;19.00;99.90
40600;DHT22;26309;50.924;4.754;2023-06-24T00:39:12;18.90;99.90
40600;DHT22;26309;50.924;4.754;2023-06-24T00:41:39;18.80;99.90
40600;DHT22;26309;50.924;4.754;2023-06-24T00:44:05;18.80;99.90
40600;DHT22;26309;50.924;4.754;2023-06-24T00:46:32;18.70;99.90
40600;DHT22;26309;50.924;4.754;2023-06-24T00:48:59;18.70;99.90
40600;DHT22;26309;50.924;4.754;2023-06-24T00:51:26;18.80;99.90
40600;DHT22;26309;50.924;4.754;2023-06-24T00:53:57;18.80;99.90
40600;DHT22;26309;50.924;4.754;2023-06-24T00:56:35;18.70;99.90
40600;DHT22;26309;50.924;4.754;2023-06-24T00:59:04;18.60;99.90
40600;DHT22;26309;50.924;4.754;2023-06-24T01:01:34;18.60;99.90
40600;DHT22;26309;50.924;4.754;2023-06-24T01:04:02;18.60;99.90
40600;DHT22;26309;50.924;4.754;2023-06-24T01:06:31;18.50;99.90
40600;DHT22;26309;50.924;4.754;2023-06-24T01:09:01;18.50;99.90
40600;DHT22;26309;50.924;4.754;2023-06-24T01:11:29;18.40;99.90
40600;DHT22;26309;50.924;4.754;2023-06-24T01:13:57;18.30;99.90
40600;DHT22;26309;50.924;4.754;2023-06-24T01:30:38;18.20;99.90
40600;DHT22;26309;50.924;4.754;2023-06-24T01:33:14;18.10;99.90
40600;DHT22;26309;50.924;4.754;2023-06-24T01:35:43;17.90;99.90
40600;DHT22;26309;50.924;4.754;2023-06-24T01:38:27;17.80;99.90
40600;DHT22;26309;50.924;4.754;2023-06-24T01:40:56;17.80;99.90
40600;DHT22;26309;50.924;4.754;2023-06-24T01:43:23;17.80;99.90
40600;DHT22;26309;50.924;4.754;2023-06-24T01:45:52;17.80;99.90
40600;DHT22;26309;50.924;4.754;2023-06-24T01:48:32;17.80;99.90
40600;DHT22;26309;50.924;4.754;2023-06-24T01:54:24;17.80;99.90
40600;DHT22;26309;50.924;4.754;2023-06-24T01:56:53;17.70;99.90
40600;DHT22;26309;50.924;4.754;2023-06-24T01:59:22;17.60;99.90
40600;DHT22;26309;50.924;4.754;2023-06-24T02:01:49;17.50;99.90
40600;DHT22;26309;50.924;4.754;2023-06-24T02:04:19;17.60;99.90
40600;DHT22;26309;50.924;4.754;2023-06-24T02:06:46;17.50;99.90
40600;DHT22;26309;50.924;4.754;2023-06-24T02:09:16;17.60;99.90
40600;DHT22;26309;50.924;4.754;2023-06-24T02:11:43;17.50;99.90
40600;DHT22;26309;50.924;4.754;2023-06-24T02:14:10;17.40;99.90
40600;DHT22;26309;50.924;4.754;2023-06-24T02:16:37;17.30;99.90
40600;DHT22;26309;50.924;4.754;2023-06-24T02:19:09;17.30;99.90
40600;DHT22;26309;50.924;4.754;2023-06-24T02:21:39;17.20;99.90
40600;DHT22;26309;50.924;4.754;2023-06-24T02:24:06;17.20;99.90
40600;DHT22;26309;50.924;4.754;2023-06-24T02:26:33;17.20;99.90
40600;DHT22;26309;50.924;4.754;2023-06-24T02:29:01;17.00;99.90
40600;DHT22;26309;50.924;4.754;2023-06-24T02:31:27;17.00;99.90
40600;DHT22;26309;50.924;4.754;2023-06-24T02:33:53;16.90;99.90
40600;DHT22;26309;50.924;4.754;2023-06-24T02:36:19;17.00;99.90
40600;DHT22;26309;50.924;4.754;2023-06-24T02:38:46;16.90;99.90
40600;DHT22;26309;50.924;4.754;2023-06-24T02:41:12;16.90;99.90
40600;DHT22;26309;50.924;4.754;2023-06-24T02:43:38;16.90;99.90
40600;DHT22;26309;50.924;4.754;2023-06-24T02:46:05;16.80;99.90
40600;DHT22;26309;50.924;4.754;2023-06-24T02:48:35;16.80;99.90
40600;DHT22;26309;50.924;4.754;2023-06-24T02:51:03;16.70;99.90
40600;DHT22;26309;50.924;4.754;2023-06-24T02:53:30;16.70;99.90
40600;DHT22;26309;50.924;4.754;2023-06-24T02:55:57;16.70;99.90
40600;DHT22;26309;50.924;4.754;2023-06-24T02:58:24;16.80;99.90
40600;DHT22;26309;50.924;4.754;2023-06-24T03:01:00;16.70;99.90
40600;DHT22;26309;50.924;4.754;2023-06-24T03:03:28;16.60;99.90
40600;DHT22;26309;50.924;4.754;2023-06-24T03:05:55;16.70;99.90
40600;DHT22;26309;50.924;4.754;2023-06-24T03:08:24;16.70;99.90
40600;DHT22;26309;50.924;4.754;2023-06-24T03:10:55;16.60;99.90
40600;DHT22;26309;50.924;4.754;2023-06-24T03:13:22;16.60;99.90
40600;DHT22;26309;50.924;4.754;2023-06-24T03:15:48;16.50;99.90
40600;DHT22;26309;50.924;4.754;2023-06-24T03:18:15;16.50;99.90
40600;DHT22;26309;50.924;4.754;2023-06-24T03:20:42;16.50;99.90
40600;DHT22;26309;50.924;4.754;2023-06-24T03:23:09;16.40;99.90
40600;DHT22;26309;50.924;4.754;2023-06-24T03:25:35;16.50;99.90
40600;DHT22;26309;50.924;4.754;2023-06-24T03:28:02;16.30;99.90
40600;DHT22;26309;50.924;4.754;2023-06-24T03:30:34;16.20;99.90
40600;DHT22;26309;50.924;4.754;2023-06-24T03:33:01;16.20;99.90
40600;DHT22;26309;50.924;4.754;2023-06-24T03:35:27;16.20;99.90
40600;DHT22;26309;50.924;4.754;2023-06-24T03:37:53;16.20;99.90
40600;DHT22;26309;50.924;4.754;2023-06-24T03:40:20;16.20;99.90
40600;DHT22;26309;50.924;4.754;2023-06-24T03:42:46;16.20;99.90
40600;DHT22;26309;50.924;4.754;2023-06-24T03:45:12;16.10;99.90
40600;DHT22;26309;50.924;4.754;2023-06-24T03:47:39;16.10;99.90
40600;DHT22;26309;50.924;4.754;2023-06-24T03:50:05;16.10;99.90
40600;DHT22;26309;50.924;4.754;2023-06-24T03:52:32;16.00;99.90
40600;DHT22;26309;50.924;4.754;2023-06-24T03:54:58;16.00;99.90
40600;DHT22;26309;50.924;4.754;2023-06-24T03:57:24;16.30;99.90
40600;DHT22;26309;50.924;4.754;2023-06-24T04:03:12;16.60;99.90
40600;DHT22;26309;50.924;4.754;2023-06-24T04:05:38;16.60;99.90
40600;DHT22;26309;50.924;4.754;2023-06-24T04:08:04;16.40;99.90
40600;DHT22;26309;50.924;4.754;2023-06-24T04:10:32;16.30;99.90
40600;DHT22;26309;50.924;4.754;2023-06-24T04:12:58;16.20;99.90
40600;DHT22;26309;50.924;4.754;2023-06-24T04:15:24;16.20;99.90
40600;DHT22;26309;50.924;4.754;2023-06-24T04:17:50;16.20;99.90
40600;DHT22;26309;50.924;4.754;2023-06-24T04:20:16;16.10;99.90
40600;DHT22;26309;50.924;4.754;2023-06-24T04:22:42;16.20;99.90
40600;DHT22;26309;50.924;4.754;2023-06-24T04:25:09;16.50;99.90
40600;DHT22;26309;50.924;4.754;2023-06-24T04:27:35;16.60;99.90
40600;DHT22;26309;50.924;4.754;2023-06-24T04:30:02;16.80;99.90
40600;DHT22;26309;50.924;4.754;2023-06-24T04:32:28;16.80;99.90
40600;DHT22;26309;50.924;4.754;2023-06-24T04:34:58;17.00;99.90
40600;DHT22;26309;50.924;4.754;2023-06-24T04:37:25;17.60;99.90
40600;DHT22;26309;50.924;4.754;2023-06-24T04:39:51;17.60;99.90
40600;DHT22;26309;50.924;4.754;2023-06-24T04:42:17;17.50;99.90
40600;DHT22;26309;50.924;4.754;2023-06-24T04:44:43;17.80;99.90
40600;DHT22;26309;50.924;4.754;2023-06-24T04:47:09;18.00;99.90
40600;DHT22;26309;50.924;4.754;2023-06-24T04:49:36;17.90;99.90
40600;DHT22;26309;50.924;4.754;2023-06-24T04:52:03;17.70;99.90
40600;DHT22;26309;50.924;4.754;2023-06-24T04:54:29;18.10;99.90
40600;DHT22;26309;50.924;4.754;2023-06-24T04:56:55;19.20;99.90
40600;DHT22;26309;50.924;4.754;2023-06-24T04:59:22;20.50;99.90
40600;DHT22;26309;50.924;4.754;2023-06-24T05:01:48;21.40;99.90
40600;DHT22;26309;50.924;4.754;2023-06-24T05:04:14;22.20;99.90
40600;DHT22;26309;50.924;4.754;2023-06-24T05:06:40;22.80;99.90
40600;DHT22;26309;50.924;4.754;2023-06-24T05:09:06;23.40;99.90
40600;DHT22;26309;50.924;4.754;2023-06-24T05:11:32;24.00;99.90
40600;DHT22;26309;50.924;4.754;2023-06-24T05:13:58;24.20;99.90
40600;DHT22;26309;50.924;4.754;2023-06-24T05:16:24;24.90;99.90
40600;DHT22;26309;50.924;4.754;2023-06-24T05:18:50;25.00;99.90
40600;DHT22;26309;50.924;4.754;2023-06-24T05:21:16;24.90;99.90
40600;DHT22;26309;50.924;4.754;2023-06-24T05:23:43;25.20;99.90
40600;DHT22;26309;50.924;4.754;2023-06-24T05:26:09;25.00;99.90
40600;DHT22;26309;50.924;4.754;2023-06-24T05:28:36;25.10;99.90
40600;DHT22;26309;50.924;4.754;2023-06-24T05:31:02;25.20;99.90
40600;DHT22;26309;50.924;4.754;2023-06-24T05:33:28;25.50;99.90
40600;DHT22;26309;50.924;4.754;2023-06-24T05:35:56;25.60;99.60
40600;DHT22;26309;50.924;4.754;2023-06-24T05:38:22;25.80;99.60
40600;DHT22;26309;50.924;4.754;2023-06-24T05:40:51;25.90;99.90
40600;DHT22;26309;50.924;4.754;2023-06-24T05:43:17;25.60;98.40
40600;DHT22;26309;50.924;4.754;2023-06-24T05:45:43;25.30;98.90
40600;DHT22;26309;50.924;4.754;2023-06-24T05:48:10;25.20;98.50
40600;DHT22;26309;50.924;4.754;2023-06-24T05:50:36;25.50;97.40
40600;DHT22;26309;50.924;4.754;2023-06-24T05:53:02;25.60;97.80
40600;DHT22;26309;50.924;4.754;2023-06-24T05:55:28;25.70;97.10
40600;DHT22;26309;50.924;4.754;2023-06-24T06:01:16;25.70;97.10
40600;DHT22;26309;50.924;4.754;2023-06-24T06:03:43;25.60;97.70
40600;DHT22;26309;50.924;4.754;2023-06-24T06:06:09;25.70;96.70
40600;DHT22;26309;50.924;4.754;2023-06-24T06:08:35;25.80;96.50
40600;DHT22;26309;50.924;4.754;2023-06-24T06:11:01;26.10;97.50
40600;DHT22;26309;50.924;4.754;2023-06-24T06:13:29;26.40;96.50
40600;DHT22;26309;50.924;4.754;2023-06-24T06:15:56;26.40;94.60
40600;DHT22;26309;50.924;4.754;2023-06-24T06:18:22;26.00;94.70
40600;DHT22;26309;50.924;4.754;2023-06-24T06:20:48;26.00;95.80
40600;DHT22;26309;50.924;4.754;2023-06-24T06:26:44;26.10;94.50
40600;DHT22;26309;50.924;4.754;2023-06-24T06:29:11;26.00;95.30
40600;DHT22;26309;50.924;4.754;2023-06-24T06:31:37;26.10;95.90
40600;DHT22;26309;50.924;4.754;2023-06-24T06:34:03;26.10;94.00
40600;DHT22;26309;50.924;4.754;2023-06-24T06:36:30;25.90;94.10
40600;DHT22;26309;50.924;4.754;2023-06-24T06:38:56;25.60;95.40
40600;DHT22;26309;50.924;4.754;2023-06-24T06:41:22;25.30;96.30
40600;DHT22;26309;50.924;4.754;2023-06-24T06:43:52;25.10;96.30
40600;DHT22;26309;50.924;4.754;2023-06-24T06:46:19;25.00;96.30
40600;DHT22;26309;50.924;4.754;2023-06-24T06:48:46;24.80;97.60
40600;DHT22;26309;50.924;4.754;2023-06-24T06:51:13;24.60;97.20
40600;DHT22;26309;50.924;4.754;2023-06-24T06:53:39;24.40;98.60
40600;DHT22;26309;50.924;4.754;2023-06-24T06:56:05;24.30;98.20
40600;DHT22;26309;50.924;4.754;2023-06-24T06:58:31;24.20;98.40
40600;DHT22;26309;50.924;4.754;2023-06-24T07:00:58;23.80;99.90
40600;DHT22;26309;50.924;4.754;2023-06-24T07:03:27;23.70;99.90
40600;DHT22;26309;50.924;4.754;2023-06-24T07:05:54;23.50;99.30
40600;DHT22;26309;50.924;4.754;2023-06-24T07:08:20;23.50;99.90
40600;DHT22;26309;50.924;4.754;2023-06-24T07:10:50;23.20;99.90
40600;DHT22;26309;50.924;4.754;2023-06-24T07:13:18;23.10;99.90
40600;DHT22;26309;50.924;4.754;2023-06-24T07:15:44;23.00;99.90
40600;DHT22;26309;50.924;4.754;2023-06-24T07:18:13;23.10;99.90
40600;DHT22;26309;50.924;4.754;2023-06-24T07:20:39;23.30;99.90
40600;DHT22;26309;50.924;4.754;2023-06-24T07:23:05;23.50;99.90
40600;DHT22;26309;50.924;4.754;2023-06-24T07:25:32;23.60;99.90
40600;DHT22;26309;50.924;4.754;2023-06-24T07:27:58;23.60;99.90
40600;DHT22;26309;50.924;4.754;2023-06-24T07:30:24;23.60;99.90
40600;DHT22;26309;50.924;4.754;2023-06-24T07:32:51;23.70;99.90
40600;DHT22;26309;50.924;4.754;2023-06-24T07:35:17;24.00;99.90
40600;DHT22;26309;50.924;4.754;2023-06-24T07:37:45;24.10;99.90
40600;DHT22;26309;50.924;4.754;2023-06-24T07:40:11;24.20;99.90
40600;DHT22;26309;50.924;4.754;2023-06-24T07:42:37;24.30;99.70
40600;DHT22;26309;50.924;4.754;2023-06-24T07:45:04;24.50;99.90
40600;DHT22;26309;50.924;4.754;2023-06-24T07:47:30;24.30;99.90
40600;DHT22;26309;50.924;4.754;2023-06-24T07:53:20;24.70;98.70
40600;DHT22;26309;50.924;4.754;2023-06-24T07:55:46;24.80;99.60
40600;DHT22;26309;50.924;4.754;2023-06-24T07:58:12;24.80;97.20
40600;DHT22;26309;50.924;4.754;2023-06-24T08:00:38;24.70;97.50
40600;DHT22;26309;50.924;4.754;2023-06-24T08:03:04;24.70;98.40
40600;DHT22;26309;50.924;4.754;2023-06-24T08:05:30;24.70;98.80
40600;DHT22;26309;50.924;4.754;2023-06-24T08:07:57;24.90;97.40
40600;DHT22;26309;50.924;4.754;2023-06-24T08:10:23;24.90;97.80
40600;DHT22;26309;50.924;4.754;2023-06-24T08:12:50;24.70;96.00
40600;DHT22;26309;50.924;4.754;2023-06-24T08:15:16;24.70;96.00
40600;DHT22;26309;50.924;4.754;2023-06-24T08:17:42;24.40;97.10
40600;DHT22;26309;50.924;4.754;2023-06-24T08:20:10;24.50;97.60
40600;DHT22;26309;50.924;4.754;2023-06-24T08:22:36;24.80;97.80
40600;DHT22;26309;50.924;4.754;2023-06-24T08:25:03;25.00;95.50
40600;DHT22;26309;50.924;4.754;2023-06-24T08:27:29;25.30;95.70
40600;DHT22;26309;50.924;4.754;2023-06-24T08:29:55;25.50;94.50
40600;DHT22;26309;50.924;4.754;2023-06-24T08:32:21;25.60;94.70
40600;DHT22;26309;50.924;4.754;2023-06-24T08:34:48;25.60;93.90
40600;DHT22;26309;50.924;4.754;2023-06-24T08:37:14;25.70;94.00
40600;DHT22;26309;50.924;4.754;2023-06-24T08:39:40;25.80;92.70
40600;DHT22;26309;50.924;4.754;2023-06-24T08:42:06;25.80;91.80
40600;DHT22;26309;50.924;4.754;2023-06-24T08:44:33;25.70;93.10
40600;DHT22;26309;50.924;4.754;2023-06-24T08:46:59;25.80;91.20
40600;DHT22;26309;50.924;4.754;2023-06-24T08:49:30;25.80;91.30
40600;DHT22;26309;50.924;4.754;2023-06-24T08:52:03;26.00;92.70
40600;DHT22;26309;50.924;4.754;2023-06-24T08:54:35;26.10;88.20
40600;DHT22;26309;50.924;4.754;2023-06-24T08:57:05;26.20;91.80
40600;DHT22;26309;50.924;4.754;2023-06-24T08:59:37;26.20;90.30
40600;DHT22;26309;50.924;4.754;2023-06-24T09:02:04;26.20;87.70
40600;DHT22;26309;50.924;4.754;2023-06-24T09:04:30;26.10;89.80
40600;DHT22;26309;50.924;4.754;2023-06-24T09:06:56;26.30;87.90
40600;DHT22;26309;50.924;4.754;2023-06-24T09:09:23;26.50;83.20
40600;DHT22;26309;50.924;4.754;2023-06-24T09:15:51;26.60;86.20
40600;DHT22;26309;50.924;4.754;2023-06-24T09:18:18;26.60;84.20
40600;DHT22;26309;50.924;4.754;2023-06-24T09:20:47;26.50;82.60
40600;DHT22;26309;50.924;4.754;2023-06-24T09:23:17;26.40;79.30
40600;DHT22;26309;50.924;4.754;2023-06-24T09:25:43;26.40;83.50
40600;DHT22;26309;50.924;4.754;2023-06-24T09:28:11;26.30;80.20
40600;DHT22;26309;50.924;4.754;2023-06-24T09:30:39;26.40;82.60
40600;DHT22;26309;50.924;4.754;2023-06-24T09:33:05;26.70;80.90
40600;DHT22;26309;50.924;4.754;2023-06-24T09:35:35;26.80;79.90
40600;DHT22;26309;50.924;4.754;2023-06-24T09:38:03;26.90;82.40
40600;DHT22;26309;50.924;4.754;2023-06-24T09:40:29;27.00;79.80
40600;DHT22;26309;50.924;4.754;2023-06-24T09:42:56;26.90;73.80
40600;DHT22;26309;50.924;4.754;2023-06-24T09:45:29;26.80;71.50
40600;DHT22;26309;50.924;4.754;2023-06-24T09:47:57;27.00;74.20
40600;DHT22;26309;50.924;4.754;2023-06-24T09:50:24;27.10;72.00
40600;DHT22;26309;50.924;4.754;2023-06-24T09:52:52;27.30;75.30
40600;DHT22;26309;50.924;4.754;2023-06-24T09:55:20;27.40;75.50
40600;DHT22;26309;50.924;4.754;2023-06-24T09:57:49;27.40;75.20
40600;DHT22;26309;50.924;4.754;2023-06-24T10:00:18;27.60;73.90
40600;DHT22;26309;50.924;4.754;2023-06-24T10:02:46;27.40;69.70
40600;DHT22;26309;50.924;4.754;2023-06-24T10:05:13;27.50;69.60
40600;DHT22;26309;50.924;4.754;2023-06-24T10:07:40;27.80;71.00
40600;DHT22;26309;50.924;4.754;2023-06-24T10:10:08;27.50;66.70
40600;DHT22;26309;50.924;4.754;2023-06-24T10:12:38;27.30;70.90
40600;DHT22;26309;50.924;4.754;2023-06-24T10:15:05;26.90;69.90
40600;DHT22;26309;50.924;4.754;2023-06-24T10:17:31;27.00;73.20
40600;DHT22;26309;50.924;4.754;2023-06-24T10:19:58;27.10;69.90
40600;DHT22;26309;50.924;4.754;2023-06-24T10:22:30;27.20;72.30
40600;DHT22;26309;50.924;4.754;2023-06-24T10:25:00;27.50;68.50
40600;DHT22;26309;50.924;4.754;2023-06-24T10:27:27;27.50;69.50
40600;DHT22;26309;50.924;4.754;2023-06-24T10:30:02;27.30;66.90
40600;DHT22;26309;50.924;4.754;2023-06-24T10:32:42;27.10;66.60
40600;DHT22;26309;50.924;4.754;2023-06-24T10:35:26;26.70;69.00
40600;DHT22;26309;50.924;4.754;2023-06-24T10:37:56;26.80;71.10
40600;DHT22;26309;50.924;4.754;2023-06-24T10:40:42;26.80;70.60
40600;DHT22;26309;50.924;4.754;2023-06-24T10:45:52;27.10;71.80
40600;DHT22;26309;50.924;4.754;2023-06-24T10:48:18;27.40;75.90
40600;DHT22;26309;50.924;4.754;2023-06-24T10:50:48;27.50;72.90
40600;DHT22;26309;50.924;4.754;2023-06-24T10:53:15;27.80;70.80
40600;DHT22;26309;50.924;4.754;2023-06-24T10:55:44;27.70;67.70
40600;DHT22;26309;50.924;4.754;2023-06-24T10:58:13;28.00;70.20
40600;DHT22;26309;50.924;4.754;2023-06-24T11:00:41;28.20;71.00
40600;DHT22;26309;50.924;4.754;2023-06-24T11:03:11;28.10;70.00
40600;DHT22;26309;50.924;4.754;2023-06-24T11:05:42;28.10;74.80
40600;DHT22;26309;50.924;4.754;2023-06-24T11:08:12;27.90;66.60
40600;DHT22;26309;50.924;4.754;2023-06-24T11:10:45;28.20;69.80
40600;DHT22;26309;50.924;4.754;2023-06-24T11:13:12;28.20;64.60
40600;DHT22;26309;50.924;4.754;2023-06-24T11:15:42;28.40;64.70
40600;DHT22;26309;50.924;4.754;2023-06-24T11:18:09;28.70;67.70
40600;DHT22;26309;50.924;4.754;2023-06-24T11:20:36;28.50;65.70
40600;DHT22;26309;50.924;4.754;2023-06-24T11:23:07;28.50;62.20
40600;DHT22;26309;50.924;4.754;2023-06-24T11:25:39;28.70;63.70
40600;DHT22;26309;50.924;4.754;2023-06-24T11:28:13;28.60;62.10
40600;DHT22;26309;50.924;4.754;2023-06-24T11:30:39;28.50;64.20
40600;DHT22;26309;50.924;4.754;2023-06-24T11:33:06;28.50;62.70
40600;DHT22;26309;50.924;4.754;2023-06-24T11:35:32;28.50;61.00
40600;DHT22;26309;50.924;4.754;2023-06-24T11:38:01;28.50;58.30
40600;DHT22;26309;50.924;4.754;2023-06-24T11:40:27;28.20;66.00
40600;DHT22;26309;50.924;4.754;2023-06-24T11:42:54;28.30;60.80
40600;DHT22;26309;50.924;4.754;2023-06-24T11:48:42;28.30;62.20
40600;DHT22;26309;50.924;4.754;2023-06-24T11:51:15;28.50;61.00
40600;DHT22;26309;50.924;4.754;2023-06-24T11:53:44;28.60;61.10
40600;DHT22;26309;50.924;4.754;2023-06-24T11:56:13;28.60;67.40
40600;DHT22;26309;50.924;4.754;2023-06-24T11:58:41;28.70;64.00
40600;DHT22;26309;50.924;4.754;2023-06-24T12:01:08;28.70;64.40
40600;DHT22;26309;50.924;4.754;2023-06-24T12:03:34;28.40;60.20
40600;DHT22;26309;50.924;4.754;2023-06-24T12:06:00;28.20;62.70
40600;DHT22;26309;50.924;4.754;2023-06-24T12:08:27;28.30;65.80
40600;DHT22;26309;50.924;4.754;2023-06-24T12:10:53;28.40;63.00
40600;DHT22;26309;50.924;4.754;2023-06-24T12:13:19;28.40;58.40
40600;DHT22;26309;50.924;4.754;2023-06-24T12:15:45;28.30;61.80
40600;DHT22;26309;50.924;4.754;2023-06-24T12:18:12;28.20;58.40
40600;DHT22;26309;50.924;4.754;2023-06-24T12:20:40;28.10;62.00
40600;DHT22;26309;50.924;4.754;2023-06-24T12:23:08;28.10;58.90
40600;DHT22;26309;50.924;4.754;2023-06-24T12:25:34;28.20;63.00
40600;DHT22;26309;50.924;4.754;2023-06-24T12:28:01;28.10;57.30
40600;DHT22;26309;50.924;4.754;2023-06-24T12:30:27;28.10;57.80
40600;DHT22;26309;50.924;4.754;2023-06-24T12:32:54;28.30;58.10
40600;DHT22;26309;50.924;4.754;2023-06-24T12:35:21;28.30;57.10
40600;DHT22;26309;50.924;4.754;2023-06-24T12:37:47;28.30;56.00
40600;DHT22;26309;50.924;4.754;2023-06-24T12:40:14;28.40;59.30
40600;DHT22;26309;50.924;4.754;2023-06-24T12:42:40;28.30;59.10
40600;DHT22;26309;50.924;4.754;2023-06-24T12:45:07;28.40;59.30
40600;DHT22;26309;50.924;4.754;2023-06-24T12:47:33;28.80;56.60
40600;DHT22;26309;50.924;4.754;2023-06-24T12:49:59;28.60;58.70
40600;DHT22;26309;50.924;4.754;2023-06-24T12:52:26;28.70;54.60
40600;DHT22;26309;50.924;4.754;2023-06-24T12:54:53;28.70;58.30
40600;DHT22;26309;50.924;4.754;2023-06-24T12:57:19;29.00;57.70
40600;DHT22;26309;50.924;4.754;2023-06-24T12:59:45;29.00;58.40
40600;DHT22;26309;50.924;4.754;2023-06-24T13:02:11;29.20;55.50
40600;DHT22;26309;50.924;4.754;2023-06-24T13:04:37;29.30;56.80
40600;DHT22;26309;50.924;4.754;2023-06-24T13:07:04;29.10;54.70
40600;DHT22;26309;50.924;4.754;2023-06-24T13:09:30;29.20;56.50
40600;DHT22;26309;50.924;4.754;2023-06-24T13:11:56;29.20;56.30
40600;DHT22;26309;50.924;4.754;2023-06-24T13:14:23;29.20;55.90
40600;DHT22;26309;50.924;4.754;2023-06-24T13:16:52;29.10;56.10
40600;DHT22;26309;50.924;4.754;2023-06-24T13:19:19;29.30;55.70
40600;DHT22;26309;50.924;4.754;2023-06-24T13:21:45;29.30;55.70
40600;DHT22;26309;50.924;4.754;2023-06-24T13:24:11;29.40;57.10
40600;DHT22;26309;50.924;4.754;2023-06-24T13:26:38;29.70;58.20
40600;DHT22;26309;50.924;4.754;2023-06-24T13:29:05;29.10;58.40
40600;DHT22;26309;50.924;4.754;2023-06-24T13:31:33;29.10;55.70
40600;DHT22;26309;50.924;4.754;2023-06-24T13:33:59;29.40;57.30
40600;DHT22;26309;50.924;4.754;2023-06-24T13:38:57;29.80;54.30
40600;DHT22;26309;50.924;4.754;2023-06-24T13:41:23;29.80;52.30
40600;DHT22;26309;50.924;4.754;2023-06-24T13:43:51;29.60;53.50
40600;DHT22;26309;50.924;4.754;2023-06-24T13:46:17;29.60;53.10
40600;DHT22;26309;50.924;4.754;2023-06-24T13:48:44;29.70;58.80
40600;DHT22;26309;50.924;4.754;2023-06-24T13:51:10;29.30;55.60
40600;DHT22;26309;50.924;4.754;2023-06-24T13:53:37;29.30;54.30
40600;DHT22;26309;50.924;4.754;2023-06-24T13:56:03;29.30;55.60
40600;DHT22;26309;50.924;4.754;2023-06-24T13:58:29;29.80;54.60
40600;DHT22;26309;50.924;4.754;2023-06-24T14:00:56;30.40;53.60
40600;DHT22;26309;50.924;4.754;2023-06-24T14:03:22;31.10;53.20
40600;DHT22;26309;50.924;4.754;2023-06-24T14:05:48;31.40;52.50
40600;DHT22;26309;50.924;4.754;2023-06-24T14:08:14;31.70;53.10
40600;DHT22;26309;50.924;4.754;2023-06-24T14:10:40;32.00;52.20
40600;DHT22;26309;50.924;4.754;2023-06-24T14:13:06;32.40;48.90
40600;DHT22;26309;50.924;4.754;2023-06-24T14:15:32;32.70;48.70
40600;DHT22;26309;50.924;4.754;2023-06-24T14:17:59;32.60;48.60
40600;DHT22;26309;50.924;4.754;2023-06-24T14:20:25;32.20;51.10
40600;DHT22;26309;50.924;4.754;2023-06-24T14:22:51;32.80;48.70
40600;DHT22;26309;50.924;4.754;2023-06-24T14:25:17;33.00;47.20
40600;DHT22;26309;50.924;4.754;2023-06-24T14:27:44;32.90;49.20
40600;DHT22;26309;50.924;4.754;2023-06-24T14:30:10;33.10;46.20
40600;DHT22;26309;50.924;4.754;2023-06-24T14:32:37;33.70;44.50
40600;DHT22;26309;50.924;4.754;2023-06-24T14:35:04;34.40;47.10
40600;DHT22;26309;50.924;4.754;2023-06-24T14:37:30;34.10;45.50
40600;DHT22;26309;50.924;4.754;2023-06-24T14:39:56;34.30;45.50
40600;DHT22;26309;50.924;4.754;2023-06-24T14:42:23;35.00;43.00
40600;DHT22;26309;50.924;4.754;2023-06-24T14:44:49;35.60;42.30
40600;DHT22;26309;50.924;4.754;2023-06-24T14:47:19;36.10;45.00
40600;DHT22;26309;50.924;4.754;2023-06-24T14:49:45;35.70;43.40
40600;DHT22;26309;50.924;4.754;2023-06-24T14:52:12;35.00;41.60
40600;DHT22;26309;50.924;4.754;2023-06-24T14:54:38;35.30;43.80
40600;DHT22;26309;50.924;4.754;2023-06-24T14:57:05;35.10;42.50
40600;DHT22;26309;50.924;4.754;2023-06-24T14:59:31;35.20;42.20
40600;DHT22;26309;50.924;4.754;2023-06-24T15:01:57;35.10;41.60
40600;DHT22;26309;50.924;4.754;2023-06-24T15:04:23;34.80;43.30
40600;DHT22;26309;50.924;4.754;2023-06-24T15:10:12;35.30;41.80
40600;DHT22;26309;50.924;4.754;2023-06-24T15:12:39;35.80;42.30
40600;DHT22;26309;50.924;4.754;2023-06-24T15:15:06;36.00;39.60
40600;DHT22;26309;50.924;4.754;2023-06-24T15:17:33;35.80;40.30
40600;DHT22;26309;50.924;4.754;2023-06-24T15:20:02;35.30;40.00
40600;DHT22;26309;50.924;4.754;2023-06-24T15:22:30;35.60;40.30
40600;DHT22;26309;50.924;4.754;2023-06-24T15:24:57;35.40;39.70
40600;DHT22;26309;50.924;4.754;2023-06-24T15:27:26;35.80;41.50
40600;DHT22;26309;50.924;4.754;2023-06-24T15:29:52;36.10;40.30
40600;DHT22;26309;50.924;4.754;2023-06-24T15:32:19;36.10;37.40
40600;DHT22;26309;50.924;4.754;2023-06-24T15:34:46;36.10;38.60
40600;DHT22;26309;50.924;4.754;2023-06-24T15:37:12;36.60;39.90
40600;DHT22;26309;50.924;4.754;2023-06-24T15:39:41;36.50;37.30
40600;DHT22;26309;50.924;4.754;2023-06-24T15:42:08;37.40;37.50
40600;DHT22;26309;50.924;4.754;2023-06-24T15:44:34;37.50;36.40
40600;DHT22;26309;50.924;4.754;2023-06-24T15:47:01;38.20;34.80
40600;DHT22;26309;50.924;4.754;2023-06-24T15:49:27;39.20;34.10
40600;DHT22;26309;50.924;4.754;2023-06-24T15:51:54;38.80;33.30
40600;DHT22;26309;50.924;4.754;2023-06-24T15:54:20;38.70;31.90
40600;DHT22;26309;50.924;4.754;2023-06-24T15:56:46;39.30;33.10
40600;DHT22;26309;50.924;4.754;2023-06-24T15:59:13;38.50;33.60
40600;DHT22;26309;50.924;4.754;2023-06-24T16:01:40;37.60;35.70
40600;DHT22;26309;50.924;4.754;2023-06-24T16:04:08;38.80;34.80
40600;DHT22;26309;50.924;4.754;2023-06-24T16:09:56;41.00;31.50
40600;DHT22;26309;50.924;4.754;2023-06-24T16:12:23;41.10;30.00
40600;DHT22;26309;50.924;4.754;2023-06-24T16:14:49;40.70;32.20
40600;DHT22;26309;50.924;4.754;2023-06-24T16:17:15;40.90;31.00
40600;DHT22;26309;50.924;4.754;2023-06-24T16:19:41;41.50;30.00
40600;DHT22;26309;50.924;4.754;2023-06-24T16:22:08;42.40;33.10